Time,TemperatureF,DewpointF,PressureIn,WindDirection,WindDirectionDegrees,WindSpeedMPH,WindSpeedGustMPH,Humidity,HourlyPrecipIn,Conditions,Clouds,dailyrainin,SoftwareType,DateUTC
2013-07-07 00:01:00,79.0,-99.9,30.04,SSE,158,17.0,19.0,-999,-99.99,,,-99.99,,2013-07-07 05:01:00,
2013-07-07 00:11:00,79.0,-99.9,30.05,SSE,162,17.0,18.0,-999,-99.99,,,-99.99,,2013-07-07 05:11:00,
2013-07-07 00:21:00,79.0,-99.9,30.04,SSE,160,16.0,17.0,-999,-99.99,,,-99.99,,2013-07-07 05:21:00,
2013-07-07 00:32:00,79.0,-99.9,30.04,SSE,168,17.0,19.0,-999,-99.99,,,-99.99,,2013-07-07 05:32:00,
2013-07-07 00:41:00,79.0,-99.9,30.04,South,170,18.0,20.0,-999,-99.99,,,-99.99,,2013-07-07 05:41:00,
2013-07-07 00:51:00,79.0,-99.9,30.04,South,172,19.0,20.0,-999,-99.99,,,-99.99,,2013-07-07 05:51:00,
2013-07-07 01:01:00,79.0,-99.9,30.04,South,176,19.0,20.0,-999,-99.99,,,-99.99,,2013-07-07 06:01:00,
2013-07-07 01:11:00,79.0,-99.9,30.03,SSE,168,17.0,19.0,-999,-99.99,,,-99.99,,2013-07-07 06:11:00,
2013-07-07 01:22:00,79.0,-99.9,30.03,South,169,16.0,18.0,-999,-99.99,,,-99.99,,2013-07-07 06:22:00,
2013-07-07 01:32:00,79.0,-99.9,30.03,South,172,16.0,18.0,-999,-99.99,,,-99.99,,2013-07-07 06:32:00,
2013-07-07 01:43:00,79.0,-99.9,30.03,South,177,17.0,18.0,-999,-99.99,,,-99.99,,2013-07-07 06:43:00,
2013-07-07 01:52:00,79.0,-99.9,30.02,South,174,17.0,18.0,-999,-99.99,,,-99.99,,2013-07-07 06:52:00,
2013-07-07 02:02:00,79.0,-99.9,30.02,SSE,168,17.0,19.0,-999,-99.99,,,-99.99,,2013-07-07 07:02:00,
2013-07-07 02:11:00,79.0,-99.9,30.02,South,170,15.0,16.0,-999,-99.99,,,-99.99,,2013-07-07 07:11:00,
2013-07-07 02:22:00,75.0,-99.9,30.02,SW,233,16.0,20.0,-999,-99.99,,,-99.99,,2013-07-07 07:22:00,
2013-07-07 02:34:00,75.0,-99.9,30.02,WSW,252,8.0,9.0,-999,-99.99,,,-99.99,,2013-07-07 07:34:00,
2013-07-07 02:44:00,76.0,-99.9,30.02,SW,235,7.0,8.0,-999,-99.99,,,-99.99,,2013-07-07 07:44:00,
2013-07-07 02:53:00,76.0,-99.9,30.02,SW,233,5.0,7.0,-999,-99.99,,,-99.99,,2013-07-07 07:53:00,
2013-07-07 03:03:00,76.0,-99.9,30.02,SW,225,6.0,6.0,-999,-99.99,,,-99.99,,2013-07-07 08:03:00,
2013-07-07 03:12:00,77.0,-99.9,30.01,SW,220,7.0,9.0,-999,-99.99,,,-99.99,,2013-07-07 08:12:00,
2013-07-07 03:22:00,77.0,-99.9,30.01,SW,218,6.0,7.0,-999,-99.99,,,-99.99,,2013-07-07 08:22:00,
2013-07-07 03:34:00,78.0,-99.9,30.01,SW,214,7.0,8.0,-999,-99.99,,,-99.99,,2013-07-07 08:34:00,
2013-07-07 03:44:00,78.0,-99.9,30.02,SSW,211,6.0,8.0,-999,-99.99,,,-99.99,,2013-07-07 08:44:00,
2013-07-07 03:53:00,78.0,-99.9,30.01,SW,219,5.0,6.0,-999,-99.99,,,-99.99,,2013-07-07 08:53:00,
2013-07-07 04:02:00,78.0,-99.9,30.01,SSW,198,5.0,6.0,-999,-99.99,,,-99.99,,2013-07-07 09:02:00,
2013-07-07 04:12:00,78.0,-99.9,30.01,South,190,5.0,5.0,-999,-99.99,,,-99.99,,2013-07-07 09:12:00,
2013-07-07 04:22:00,78.0,-99.9,30.01,SSW,206,4.0,5.0,-999,-99.99,,,-99.99,,2013-07-07 09:22:00,
2013-07-07 04:34:00,78.0,-99.9,30.01,SSW,203,5.0,6.0,-999,-99.99,,,-99.99,,2013-07-07 09:34:00,
2013-07-07 04:43:00,78.0,-99.9,30.01,South,190,6.0,6.0,-999,-99.99,,,-99.99,,2013-07-07 09:43:00,
2013-07-07 04:53:00,78.0,-99.9,30.02,South,181,4.0,5.0,-999,-99.99,,,-99.99,,2013-07-07 09:53:00,
2013-07-07 05:03:00,78.0,-99.9,30.02,SSE,156,3.0,4.0,-999,-99.99,,,-99.99,,2013-07-07 10:03:00,
2013-07-07 05:12:00,78.0,-99.9,30.02,SSE,151,3.0,3.0,-999,-99.99,,,-99.99,,2013-07-07 10:12:00,
2013-07-07 05:23:00,78.0,-99.9,30.02,SSE,149,4.0,4.0,-999,-99.99,,,-99.99,,2013-07-07 10:23:00,
2013-07-07 05:32:00,78.0,-99.9,30.02,SSE,152,5.0,5.0,-999,-99.99,,,-99.99,,2013-07-07 10:32:00,
2013-07-07 05:44:00,78.0,-99.9,30.02,SE,142,5.0,5.0,-999,-99.99,,,-99.99,,2013-07-07 10:44:00,
2013-07-07 05:52:00,78.0,-99.9,30.02,SE,135,4.0,5.0,-999,-99.99,,,-99.99,,2013-07-07 10:52:00,
2013-07-07 06:02:00,78.0,-99.9,30.02,SE,142,4.0,4.0,-999,-99.99,,,-99.99,,2013-07-07 11:02:00,
2013-07-07 06:12:00,78.0,-99.9,30.03,SE,143,4.0,5.0,-999,-99.99,,,-99.99,,2013-07-07 11:12:00,
2013-07-07 06:23:00,78.0,-99.9,30.03,SE,140,4.0,4.0,-999,-99.99,,,-99.99,,2013-07-07 11:23:00,
2013-07-07 06:34:00,78.0,-99.9,30.03,ESE,115,4.0,4.0,-999,-99.99,,,-99.99,,2013-07-07 11:34:00,
2013-07-07 06:43:00,79.0,-99.9,30.04,ESE,121,3.0,3.0,-999,-99.99,,,-99.99,,2013-07-07 11:43:00,
2013-07-07 06:53:00,78.0,-99.9,30.04,ESE,111,4.0,4.0,-999,-99.99,,,-99.99,,2013-07-07 11:53:00,
2013-07-07 07:02:00,79.0,-99.9,30.04,ESE,115,4.0,4.0,-999,-99.99,,,-99.99,,2013-07-07 12:02:00,
2013-07-07 07:12:00,78.0,-99.9,30.04,ESE,109,4.0,5.0,-999,-99.99,,,-99.99,,2013-07-07 12:12:00,
2013-07-07 07:22:00,78.0,-99.9,30.04,ESE,112,6.0,6.0,-999,-99.99,,,-99.99,,2013-07-07 12:22:00,
2013-07-07 07:34:00,78.0,-99.9,30.05,ESE,108,7.0,7.0,-999,-99.99,,,-99.99,,2013-07-07 12:34:00,
2013-07-07 07:43:00,78.0,-99.9,30.05,ESE,108,8.0,8.0,-999,-99.99,,,-99.99,,2013-07-07 12:43:00,
2013-07-07 07:52:00,78.0,-99.9,30.05,ESE,109,7.0,8.0,-999,-99.99,,,-99.99,,2013-07-07 12:52:00,
2013-07-07 08:03:00,78.0,-99.9,30.05,ESE,104,6.0,7.0,-999,-99.99,,,-99.99,,2013-07-07 13:03:00,
2013-07-07 08:12:00,78.0,-99.9,30.06,East,86,5.0,6.0,-999,-99.99,,,-99.99,,2013-07-07 13:12:00,
2013-07-07 08:22:00,79.0,-99.9,30.06,East,100,7.0,9.0,-999,-99.99,,,-99.99,,2013-07-07 13:22:00,
2013-07-07 08:34:00,79.0,-99.9,30.06,ESE,106,8.0,10.0,-999,-99.99,,,-99.99,,2013-07-07 13:34:00,
2013-07-07 08:43:00,79.0,-99.9,30.07,ESE,106,8.0,9.0,-999,-99.99,,,-99.99,,2013-07-07 13:43:00,
2013-07-07 08:52:00,79.0,-99.9,30.06,ESE,102,9.0,11.0,-999,-99.99,,,-99.99,,2013-07-07 13:52:00,
2013-07-07 09:02:00,79.0,-99.9,30.07,ESE,102,9.0,11.0,-999,-99.99,,,-99.99,,2013-07-07 14:02:00,
2013-07-07 09:12:00,79.0,-99.9,30.07,ESE,110,9.0,10.0,-999,-99.99,,,-99.99,,2013-07-07 14:12:00,
2013-07-07 09:22:00,79.0,-99.9,30.07,ESE,111,10.0,12.0,-999,-99.99,,,-99.99,,2013-07-07 14:22:00,
2013-07-07 09:34:00,79.0,-99.9,30.07,ESE,111,11.0,12.0,-999,-99.99,,,-99.99,,2013-07-07 14:34:00,
2013-07-07 09:43:00,80.0,-99.9,30.08,ESE,119,9.0,10.0,-999,-99.99,,,-99.99,,2013-07-07 14:43:00,
2013-07-07 09:53:00,80.0,-99.9,30.08,SE,125,7.0,8.0,-999,-99.99,,,-99.99,,2013-07-07 14:53:00,
2013-07-07 10:02:00,80.0,-99.9,30.08,SE,126,7.0,8.0,-999,-99.99,,,-99.99,,2013-07-07 15:02:00,
2013-07-07 10:12:00,80.0,-99.9,30.08,ESE,113,8.0,9.0,-999,-99.99,,,-99.99,,2013-07-07 15:12:00,
2013-07-07 10:22:00,79.0,-99.9,30.08,ESE,116,7.0,8.0,-999,-99.99,,,-99.99,,2013-07-07 15:22:00,
2013-07-07 10:34:00,79.0,-99.9,30.08,ESE,121,12.0,17.0,-999,-99.99,,,-99.99,,2013-07-07 15:34:00,
2013-07-07 10:43:00,79.0,-99.9,30.08,SE,139,13.0,16.0,-999,-99.99,,,-99.99,,2013-07-07 15:43:00,
2013-07-07 10:52:00,77.0,-99.9,30.08,SE,127,14.0,16.0,-999,-99.99,,,-99.99,,2013-07-07 15:52:00,
2013-07-07 11:02:00,76.0,-99.9,30.09,ESE,118,13.0,15.0,-999,-99.99,,,-99.99,,2013-07-07 16:02:00,
2013-07-07 11:11:00,76.0,-99.9,30.10,WSW,253,11.0,20.0,-999,-99.99,,,-99.99,,2013-07-07 16:11:00,
2013-07-07 11:23:00,74.0,-99.9,30.10,WSW,253,7.0,12.0,-999,-99.99,,,-99.99,,2013-07-07 16:23:00,
2013-07-07 11:43:00,73.0,-99.9,30.10,SSE,155,7.0,10.0,-999,-99.99,,,-99.99,,2013-07-07 16:43:00,
2013-07-07 11:53:00,73.0,-99.9,30.10,SSE,158,6.0,7.0,-999,-99.99,,,-99.99,,2013-07-07 16:53:00,
2013-07-07 12:02:00,74.0,-99.9,30.10,SSE,161,6.0,7.0,-999,-99.99,,,-99.99,,2013-07-07 17:02:00,
2013-07-07 12:12:00,75.0,-99.9,30.09,SSE,147,5.0,6.0,-999,-99.99,,,-99.99,,2013-07-07 17:12:00,
2013-07-07 12:22:00,76.0,-99.9,30.10,South,176,4.0,5.0,-999,-99.99,,,-99.99,,2013-07-07 17:22:00,
2013-07-07 12:34:00,76.0,-99.9,30.10,SSW,197,2.0,4.0,-999,-99.99,,,-99.99,,2013-07-07 17:34:00,
2013-07-07 12:43:00,77.0,-99.9,30.10,SSE,150,3.0,4.0,-999,-99.99,,,-99.99,,2013-07-07 17:43:00,
2013-07-07 12:53:00,78.0,-99.9,30.10,SE,143,3.0,4.0,-999,-99.99,,,-99.99,,2013-07-07 17:53:00,
2013-07-07 13:02:00,78.0,-99.9,30.09,East,93,3.0,4.0,-999,-99.99,,,-99.99,,2013-07-07 18:02:00,
2013-07-07 13:12:00,79.0,-99.9,30.10,ENE,75,1.0,2.0,-999,-99.99,,,-99.99,,2013-07-07 18:12:00,
2013-07-07 13:22:00,79.0,-99.9,30.10,NNW,346,0.0,1.0,-999,-99.99,,,-99.99,,2013-07-07 18:22:00,
2013-07-07 13:33:00,79.0,-99.9,30.09,West,281,2.0,3.0,-999,-99.99,,,-99.99,,2013-07-07 18:33:00,
2013-07-07 13:43:00,79.0,-99.9,30.09,West,262,2.0,3.0,-999,-99.99,,,-99.99,,2013-07-07 18:43:00,
2013-07-07 13:53:00,80.0,-99.9,30.09,WSW,252,2.0,3.0,-999,-99.99,,,-99.99,,2013-07-07 18:53:00,
2013-07-07 14:01:00,79.0,-99.9,30.09,NNW,341,4.0,4.0,-999,-99.99,,,-99.99,,2013-07-07 19:01:00,
2013-07-07 14:22:00,78.0,-99.9,30.09,North,349,3.0,5.0,-999,-99.99,,,-99.99,,2013-07-07 19:22:00,
2013-07-07 14:43:00,81.0,-99.9,30.08,SSE,150,9.0,11.0,-999,-99.99,,,-99.99,,2013-07-07 19:43:00,
2013-07-07 14:54:00,81.0,-99.9,30.08,SSE,153,9.0,11.0,-999,-99.99,,,-99.99,,2013-07-07 19:54:00,
2013-07-07 15:02:00,81.0,-99.9,30.07,SSE,152,9.0,11.0,-999,-99.99,,,-99.99,,2013-07-07 20:02:00,
2013-07-07 15:11:00,81.0,-99.9,30.07,SSE,158,9.0,10.0,-999,-99.99,,,-99.99,,2013-07-07 20:11:00,
2013-07-07 15:22:00,82.0,-99.9,30.07,SSE,161,8.0,9.0,-999,-99.99,,,-99.99,,2013-07-07 20:22:00,
2013-07-07 15:34:00,82.0,-99.9,30.07,SSE,154,8.0,10.0,-999,-99.99,,,-99.99,,2013-07-07 20:34:00,
2013-07-07 15:42:00,82.0,-99.9,30.07,SSE,155,9.0,10.0,-999,-99.99,,,-99.99,,2013-07-07 20:42:00,
2013-07-07 15:53:00,82.0,-99.9,30.06,SSE,160,9.0,10.0,-999,-99.99,,,-99.99,,2013-07-07 20:53:00,
2013-07-07 16:02:00,82.0,-99.9,30.06,SSE,165,10.0,12.0,-999,-99.99,,,-99.99,,2013-07-07 21:02:00,
2013-07-07 16:12:00,82.0,-99.9,30.06,SSE,165,10.0,12.0,-999,-99.99,,,-99.99,,2013-07-07 21:12:00,
2013-07-07 16:22:00,81.0,-99.9,30.06,SSE,164,11.0,12.0,-999,-99.99,,,-99.99,,2013-07-07 21:22:00,
2013-07-07 16:44:00,81.0,-99.9,30.06,SSE,163,11.0,12.0,-999,-99.99,,,-99.99,,2013-07-07 21:44:00,
2013-07-07 16:53:00,81.0,-99.9,30.06,SSE,164,10.0,11.0,-999,-99.99,,,-99.99,,2013-07-07 21:53:00,
2013-07-07 17:02:00,81.0,-99.9,30.06,SSE,162,9.0,11.0,-999,-99.99,,,-99.99,,2013-07-07 22:02:00,
2013-07-07 17:11:00,81.0,-99.9,30.06,South,171,9.0,10.0,-999,-99.99,,,-99.99,,2013-07-07 22:11:00,
2013-07-07 17:34:00,81.0,-99.9,30.06,SSE,161,9.0,10.0,-999,-99.99,,,-99.99,,2013-07-07 22:34:00,
2013-07-07 17:44:00,81.0,-99.9,30.06,SSE,159,8.0,9.0,-999,-99.99,,,-99.99,,2013-07-07 22:44:00,
2013-07-07 17:54:00,81.0,-99.9,30.06,SSE,162,8.0,9.0,-999,-99.99,,,-99.99,,2013-07-07 22:54:00,
2013-07-07 18:02:00,81.0,-99.9,30.06,SSE,157,9.0,10.0,-999,-99.99,,,-99.99,,2013-07-07 23:02:00,
2013-07-07 18:12:00,81.0,-99.9,30.06,SSE,155,9.0,10.0,-999,-99.99,,,-99.99,,2013-07-07 23:12:00,
2013-07-07 18:43:00,81.0,-99.9,30.06,SSE,153,9.0,9.0,-999,-99.99,,,-99.99,,2013-07-07 23:43:00,
2013-07-07 18:53:00,81.0,-99.9,30.06,SSE,153,9.0,9.0,-999,-99.99,,,-99.99,,2013-07-07 23:53:00,
2013-07-07 19:22:00,81.0,-99.9,30.06,SSE,160,8.0,9.0,-999,-99.99,,,-99.99,,2013-07-08 00:22:00,
2013-07-07 19:33:00,81.0,-99.9,30.07,SSE,166,7.0,9.0,-999,-99.99,,,-99.99,,2013-07-08 00:33:00,
2013-07-07 19:43:00,81.0,-99.9,30.07,SSE,166,7.0,9.0,-999,-99.99,,,-99.99,,2013-07-08 00:43:00,
2013-07-07 19:53:00,81.0,-99.9,30.08,South,169,6.0,7.0,-999,-99.99,,,-99.99,,2013-07-08 00:53:00,
2013-07-07 20:01:00,81.0,-99.9,30.08,SSE,166,7.0,7.0,-999,-99.99,,,-99.99,,2013-07-08 01:01:00,
2013-07-07 20:11:00,81.0,-99.9,30.09,SSE,166,6.0,7.0,-999,-99.99,,,-99.99,,2013-07-08 01:11:00,
2013-07-07 20:32:00,81.0,-99.9,30.09,South,170,6.0,6.0,-999,-99.99,,,-99.99,,2013-07-08 01:32:00,
2013-07-07 20:43:00,81.0,-99.9,30.09,South,170,6.0,6.0,-999,-99.99,,,-99.99,,2013-07-08 01:43:00,
2013-07-07 20:53:00,81.0,-99.9,30.09,SSE,166,6.0,6.0,-999,-99.99,,,-99.99,,2013-07-08 01:53:00,
2013-07-07 21:03:00,81.0,-99.9,30.09,SSE,161,6.0,6.0,-999,-99.99,,,-99.99,,2013-07-08 02:03:00,
2013-07-07 21:33:00,80.0,-99.9,30.10,SSE,147,8.0,9.0,-999,-99.99,,,-99.99,,2013-07-08 02:33:00,
2013-07-07 21:43:00,79.0,-99.9,30.10,SE,134,9.0,10.0,-999,-99.99,,,-99.99,,2013-07-08 02:43:00,
2013-07-07 22:02:00,80.0,-99.9,30.11,SSE,151,7.0,7.0,-999,-99.99,,,-99.99,,2013-07-08 03:02:00,
2013-07-07 22:12:00,80.0,-99.9,30.11,SE,142,4.0,5.0,-999,-99.99,,,-99.99,,2013-07-08 03:12:00,
2013-07-07 22:23:00,80.0,-99.9,30.11,SE,145,5.0,6.0,-999,-99.99,,,-99.99,,2013-07-08 03:23:00,
2013-07-07 22:34:00,80.0,-99.9,30.11,SSE,151,6.0,7.0,-999,-99.99,,,-99.99,,2013-07-08 03:34:00,
2013-07-07 22:52:00,80.0,-99.9,30.11,SSE,168,7.0,8.0,-999,-99.99,,,-99.99,,2013-07-08 03:52:00,
2013-07-07 23:02:00,80.0,-99.9,30.11,South,171,8.0,8.0,-999,-99.99,,,-99.99,,2013-07-08 04:02:00,
2013-07-07 23:12:00,80.0,-99.9,30.11,South,179,7.0,7.0,-999,-99.99,,,-99.99,,2013-07-08 04:12:00,
2013-07-07 23:33:00,80.0,-99.9,30.11,South,182,6.0,6.0,-999,-99.99,,,-99.99,,2013-07-08 04:33:00,
2013-07-07 23:42:00,80.0,-99.9,30.11,South,187,5.0,5.0,-999,-99.99,,,-99.99,,2013-07-08 04:42:00,
2013-07-07 23:53:00,80.0,-99.9,30.11,South,179,5.0,5.0,-999,-99.99,,,-99.99,,2013-07-08 04:53:00,